Time;durP1;ratioP1;P1;durP2;ratioP2;P2;SDS_P1;SDS_P2;PMS_P1;PMS_P2;Temp;Humidity;BMP_temperature;BMP_pressure;BME280_temperature;BME280_humidity;BME280_pressure;Samples;Min_cycle;Max_cycle;Signal;HPM_P1;HPM_P2
2023/03/18 00:01:16;;;;;;;12.70;6.65;;;;;;;11.16;95.21;100647.84;4897084;29;20617;-88
2023/03/18 00:03:42;;;;;;;12.87;5.97;;;;;;;11.09;95.33;100639.28;4909470;29;20052;-88
2023/03/18 00:06:27;;;;;;;10.93;5.38;;;;;;;11.17;94.57;100654.81;4915788;29;20040;-88
2023/03/18 00:08:52;;;;;;;12.50;5.60;;;;;;;11.09;95.53;100647.31;4914462;29;20396;-88
2023/03/18 00:11:20;;;;;;;13.88;5.80;;;;;;;11.15;94.87;100657.78;4913257;29;20030;-87
2023/03/18 00:13:48;;;;;;;14.20;5.47;;;;;;;11.12;95.10;100660.19;4896959;29;20056;-88
2023/03/18 00:16:14;;;;;;;11.73;5.60;;;;;;;11.04;95.66;100653.47;4906981;29;20028;-88
2023/03/18 00:18:41;;;;;;;10.80;5.80;;;;;;;11.01;95.82;100657.47;4913460;29;20028;-88
2023/03/18 00:21:07;;;;;;;8.98;5.55;;;;;;;11.04;96.45;100665.00;4914354;29;20035;-88
2023/03/18 00:23:33;;;;;;;14.52;6.40;;;;;;;10.99;96.96;100666.88;4913054;29;20032;-87
2023/03/18 00:26:00;;;;;;;12.88;5.68;;;;;;;10.97;96.83;100672.47;4913790;29;20071;-88
2023/03/18 00:28:26;;;;;;;11.68;5.90;;;;;;;10.97;97.24;100677.84;4912094;29;20107;-88
2023/03/18 00:30:53;;;;;;;7.97;5.15;;;;;;;10.89;96.86;100670.31;4913076;29;20399;-87
2023/03/18 00:33:19;;;;;;;14.57;5.57;;;;;;;10.87;97.44;100664.41;4913977;29;20039;-88
2023/03/18 00:35:46;;;;;;;12.37;6.10;;;;;;;10.98;97.74;100679.47;4913386;29;20300;-88
2023/03/18 00:38:19;;;;;;;19.05;7.43;;;;;;;10.90;97.75;100671.94;4910814;29;20028;-88
2023/03/18 00:41:09;;;;;;;12.90;7.50;;;;;;;10.95;97.43;100679.19;4913837;29;20471;-88
2023/03/18 00:43:44;;;;;;;16.38;7.63;;;;;;;10.99;97.17;100682.97;4886578;29;20028;-87
2023/03/18 00:46:11;;;;;;;15.60;7.90;;;;;;;10.87;97.13;100664.41;4878779;29;20036;-88
2023/03/18 00:48:37;;;;;;;13.93;7.40;;;;;;;10.91;96.72;100678.91;4911411;29;20035;-88
2023/03/18 00:51:03;;;;;;;14.40;7.13;;;;;;;10.94;96.88;100694.47;4913589;29;20262;-88
2023/03/18 00:53:34;;;;;;;13.43;7.17;;;;;;;10.88;98.28;100700.88;4914728;29;20035;-89
2023/03/18 00:55:59;;;;;;;14.90;6.40;;;;;;;10.90;99.08;100696.06;4913800;29;20386;-88
2023/03/18 00:58:25;;;;;;;12.23;6.32;;;;;;;10.84;98.36;100689.06;4914281;29;20556;-88
2023/03/18 01:00:51;;;;;;;10.60;5.77;;;;;;;10.95;99.35;100704.13;4912864;29;20042;-88
2023/03/18 01:03:19;;;;;;;15.20;5.90;;;;;;;10.93;99.86;100702.75;4913991;29;20115;-88
2023/03/18 01:05:45;;;;;;;17.10;7.20;;;;;;;10.93;100.00;100695.53;4914220;29;20088;-88
2023/03/18 01:08:11;;;;;;;17.70;6.60;;;;;;;10.99;100.00;100697.16;4899051;29;20024;-88
2023/03/18 01:10:42;;;;;;;13.90;6.40;;;;;;;10.87;100.00;100681.28;4902342;29;20036;-88
2023/03/18 01:13:07;;;;;;;15.55;7.03;;;;;;;11.00;100.00;100693.41;4904096;29;20039;-88
2023/03/18 01:15:33;;;;;;;15.80;6.93;;;;;;;11.02;100.00;100693.94;4906332;29;20423;-88
2023/03/18 01:17:59;;;;;;;19.27;7.83;;;;;;;10.95;100.00;100680.00;4911823;29;20036;-87
2023/03/18 01:20:25;;;;;;;19.63;8.25;;;;;;;10.91;100.00;100684.28;4911121;29;20064;-87
2023/03/18 01:22:50;;;;;;;17.70;8.70;;;;;;;10.75;100.00;100689.59;4913697;29;20063;-87
2023/03/18 01:25:16;;;;;;;18.30;7.83;;;;;;;10.48;100.00;100673.66;4912495;29;20028;-87
2023/03/18 01:27:47;;;;;;;19.85;8.98;;;;;;;10.30;100.00;100672.19;4913330;29;20083;-87
2023/03/18 01:30:13;;;;;;;24.73;9.13;;;;;;;10.31;100.00;100687.19;4912940;29;20028;-87
2023/03/18 01:32:38;;;;;;;22.42;9.07;;;;;;;10.22;100.00;100680.72;4912144;29;20587;-87
2023/03/18 01:35:04;;;;;;;24.80;9.60;;;;;;;10.10;100.00;100678.25;4897723;29;20520;-88
2023/03/18 01:37:30;;;;;;;18.98;9.50;;;;;;;10.00;100.00;100678.97;4911513;29;20063;-87
2023/03/18 01:39:59;;;;;;;29.80;11.03;;;;;;;10.01;100.00;100691.28;4893608;29;20029;-88
2023/03/18 01:42:25;;;;;;;24.27;10.55;;;;;;;9.95;100.00;100684.28;4917290;29;20064;-88
2023/03/18 01:45:16;;;;;;;25.67;9.70;;;;;;;9.79;100.00;100673.47;4916820;29;20067;-88
2023/03/18 01:47:45;;;;;;;24.05;10.07;;;;;;;9.82;100.00;100677.50;4917649;29;20043;-89
2023/03/18 01:50:12;;;;;;;23.97;10.97;;;;;;;9.81;100.00;100679.38;4899236;29;20096;-88
2023/03/18 01:52:38;;;;;;;23.93;10.37;;;;;;;9.82;100.00;100686.34;4914925;29;20783;-88
2023/03/18 01:55:09;;;;;;;22.95;11.68;;;;;;;9.82;100.00;100677.50;4914255;29;20149;-89
2023/03/18 01:57:35;;;;;;;30.00;13.02;;;;;;;9.72;100.00;100664.84;4902519;29;20111;-89
2023/03/18 02:00:03;;;;;;;20.10;11.60;;;;;;;9.73;100.00;100668.34;4916479;29;20488;-88
2023/03/18 02:02:32;;;;;;;23.45;10.73;;;;;;;9.65;100.00;100667.72;4917695;29;20029;-90
2023/03/18 02:05:02;;;;;;;23.80;10.98;;;;;;;9.75;100.00;100676.91;4916326;29;20369;-88
2023/03/18 02:07:37;;;;;;;19.38;10.68;;;;;;;9.69;100.00;100676.06;4911255;29;20041;-88
2023/03/18 02:10:11;;;;;;;26.10;11.80;;;;;;;9.64;100.00;100663.44;4907997;29;20551;-89
2023/03/18 02:12:50;;;;;;;22.53;12.33;;;;;;;9.74;100.00;100677.97;4917549;29;20538;-88
2023/03/18 02:15:18;;;;;;;22.93;12.67;;;;;;;9.66;100.00;100666.69;4895341;29;20832;-89
2023/03/18 02:18:28;;;;;;;22.40;13.80;;;;;;;9.67;100.00;100670.97;4910261;29;20481;-88
2023/03/18 02:21:17;;;;;;;26.38;14.38;;;;;;;9.70;100.00;100669.63;4903234;29;20121;-89
2023/03/18 02:23:55;;;;;;;25.67;14.48;;;;;;;9.78;100.00;100687.91;4916559;29;20036;-89
2023/03/18 02:26:45;;;;;;;29.90;14.10;;;;;;;9.80;100.00;100687.66;4918326;29;20024;-88
2023/03/18 02:32:47;;;;;;;25.02;14.52;;;;;;;9.64;100.00;100673.34;4870521;29;20038;-88
2023/03/18 02:35:13;;;;;;;26.50;14.98;;;;;;;9.78;100.00;100684.41;4904800;29;21482;-89
2023/03/18 02:37:38;;;;;;;21.20;13.33;;;;;;;9.62;100.00;100670.91;4904607;29;20091;-88
2023/03/18 02:40:33;;;;;;;26.03;12.73;;;;;;;9.57;100.00;100670.91;4917333;29;20020;-89
2023/03/18 02:43:32;;;;;;;28.58;12.43;;;;;;;9.69;100.00;100710.84;4914563;29;20036;-89
2023/03/18 02:46:19;;;;;;;25.40;12.95;;;;;;;9.69;100.00;100713.50;4882024;29;20032;-89
2023/03/18 02:48:45;;;;;;;26.58;12.82;;;;;;;9.60;100.00;100699.78;4912927;29;20036;-89
2023/03/18 02:51:13;;;;;;;25.45;13.77;;;;;;;9.66;100.00;100709.47;4914266;29;20155;-88
2023/03/18 02:54:10;;;;;;;27.45;14.00;;;;;;;9.64;100.00;100711.59;4904404;29;20055;-88
2023/03/18 02:56:47;;;;;;;23.50;13.27;;;;;;;9.57;100.00;100705.66;4904843;29;20572;-88
2023/03/18 03:02:08;;;;;;;24.80;15.10;;;;;;;9.50;100.00;100700.50;4910508;29;20092;-89
2023/03/18 03:04:46;;;;;;;33.17;15.70;;;;;;;9.52;100.00;100709.09;4910228;29;20296;-88
2023/03/18 03:07:25;;;;;;;28.65;15.30;;;;;;;9.43;100.00;100702.59;4917170;29;20479;-89
2023/03/18 03:10:16;;;;;;;30.55;16.20;;;;;;;9.53;100.00;100720.59;4918018;29;20036;-89
2023/03/18 03:12:51;;;;;;;27.13;16.23;;;;;;;9.49;100.00;100717.63;4917986;29;20044;-88
2023/03/18 03:15:19;;;;;;;33.65;16.80;;;;;;;9.61;100.00;100736.19;4918054;29;20034;-89
2023/03/18 03:18:09;;;;;;;30.90;17.38;;;;;;;9.59;100.00;100735.63;4900419;29;20036;-89
2023/03/18 03:23:58;;;;;;;29.15;16.30;;;;;;;9.44;100.00;100717.59;4916285;29;20043;-89
2023/03/18 03:26:31;;;;;;;34.53;18.50;;;;;;;9.53;100.00;100726.75;4916153;29;20044;-89
2023/03/18 03:28:57;;;;;;;28.03;17.07;;;;;;;9.42;100.00;100708.19;4909845;29;20051;-89
2023/03/18 03:31:32;;;;;;;34.63;16.57;;;;;;;9.51;100.00;100722.72;4880776;29;20304;-89
2023/03/18 03:34:03;;;;;;;32.35;16.80;;;;;;;9.49;100.00;100725.66;4898608;29;20111;-89
2023/03/18 03:36:37;;;;;;;28.73;15.85;;;;;;;9.49;100.00;100722.16;4907953;29;20079;-88
2023/03/18 03:39:05;;;;;;;35.25;18.02;;;;;;;9.40;100.00;100713.78;4898407;29;20024;-89
2023/03/18 03:41:30;;;;;;;30.58;16.40;;;;;;;9.49;100.00;100727.50;4920452;29;20032;-89
2023/03/18 03:43:56;;;;;;;26.97;16.00;;;;;;;9.52;100.00;100737.72;4903927;29;20546;-89
2023/03/18 03:46:21;;;;;;;28.53;15.60;;;;;;;9.45;100.00;100729.06;4921280;29;20114;-89
2023/03/18 03:48:59;;;;;;;25.40;14.18;;;;;;;9.38;100.00;100730.09;4919606;29;20091;-88
2023/03/18 03:51:24;;;;;;;29.07;15.70;;;;;;;9.48;100.00;100740.09;4919352;29;20036;-88
2023/03/18 03:53:56;;;;;;;34.27;17.13;;;;;;;9.37;100.00;100725.00;4918663;29;20418;-89
2023/03/18 03:56:21;;;;;;;35.45;16.75;;;;;;;9.51;100.00;100744.91;4912911;29;20035;-90
2023/03/18 03:58:52;;;;;;;33.73;16.07;;;;;;;9.35;100.00;100729.78;4915042;29;20032;-89
2023/03/18 04:01:21;;;;;;;31.80;17.95;;;;;;;9.30;100.00;100730.53;4899425;29;20030;-89
2023/03/18 04:03:48;;;;;;;35.83;17.05;;;;;;;9.44;100.00;100764.91;4916594;29;20040;-89
2023/03/18 04:06:22;;;;;;;27.67;16.65;;;;;;;9.33;100.00;100754.09;4915885;29;20036;-90
2023/03/18 04:09:00;;;;;;;30.63;18.23;;;;;;;9.28;100.00;100729.19;4908720;29;20039;-89
2023/03/18 04:11:29;;;;;;;41.55;19.40;;;;;;;9.34;100.00;100745.03;4908232;29;20028;-91
2023/03/18 04:13:54;;;;;;;37.83;20.25;;;;;;;9.35;100.00;100751.16;4913769;29;20379;-89
2023/03/18 04:16:29;;;;;;;32.13;20.02;;;;;;;9.42;100.00;100765.16;4913467;29;20024;-88
2023/03/18 04:18:57;;;;;;;40.03;22.42;;;;;;;9.31;100.00;100750.06;4914741;29;20527;-88
2023/03/18 04:21:29;;;;;;;41.87;22.33;;;;;;;9.29;100.00;100752.19;4915645;29;20060;-87
2023/03/18 04:23:55;;;;;;;47.37;22.53;;;;;;;9.22;100.00;100734.47;4896864;29;20378;-88
2023/03/18 04:26:20;;;;;;;40.28;22.02;;;;;;;9.37;100.00;100765.09;4907748;29;20051;-88
2023/03/18 04:28:46;;;;;;;42.10;20.57;;;;;;;9.40;100.00;100764.59;4913669;29;20035;-87
2023/03/18 04:31:12;;;;;;;38.57;19.57;;;;;;;9.37;100.00;100763.25;4897503;29;20276;-88
2023/03/18 04:33:38;;;;;;;35.60;19.45;;;;;;;9.38;100.00;100766.72;4903289;29;20024;-88
2023/03/18 04:36:07;;;;;;;37.47;19.10;;;;;;;9.39;100.00;100768.34;4913588;29;20107;-88
2023/03/18 04:38:33;;;;;;;31.07;17.33;;;;;;;9.38;100.00;100766.72;4913803;29;20028;-88
2023/03/18 04:40:58;;;;;;;30.67;17.33;;;;;;;9.39;100.00;100779.03;4897029;29;20300;-87
2023/03/18 04:43:23;;;;;;;37.83;17.90;;;;;;;9.32;100.00;100763.19;4915982;29;20375;-88
2023/03/18 04:45:49;;;;;;;36.93;18.17;;;;;;;9.35;100.00;100772.56;4923125;29;21118;-88
2023/03/18 04:48:14;;;;;;;36.93;18.90;;;;;;;9.36;100.00;100772.31;4934073;29;20039;-88
2023/03/18 04:50:40;;;;;;;34.70;18.87;;;;;;;9.40;100.00;100773.41;4934299;29;20039;-87
2023/03/18 04:53:05;;;;;;;38.67;18.48;;;;;;;9.34;100.00;100773.63;4930348;29;20044;-87
2023/03/18 04:55:31;;;;;;;38.07;18.57;;;;;;;9.32;100.00;100771.22;4915658;29;20039;-87
2023/03/18 04:57:59;;;;;;;33.97;19.13;;;;;;;9.32;100.00;100765.03;4915100;29;20028;-88
2023/03/18 05:00:31;;;;;;;37.47;19.67;;;;;;;9.36;100.00;100774.19;4914050;29;20024;-88
2023/03/18 05:02:56;;;;;;;38.00;20.25;;;;;;;9.37;100.00;100787.31;4896232;29;20248;-88
2023/03/18 05:05:22;;;;;;;49.20;23.60;;;;;;;9.38;100.00;100782.75;4914084;29;20039;-87
2023/03/18 05:07:47;;;;;;;38.33;22.37;;;;;;;9.39;100.00;100785.22;4915850;29;20483;-87
2023/03/18 05:10:13;;;;;;;45.70;22.40;;;;;;;9.45;100.00;100793.25;4914780;29;20815;-87
2023/03/18 05:12:38;;;;;;;39.00;22.20;;;;;;;9.45;100.00;100793.25;4916217;29;20480;-87
2023/03/18 05:15:05;;;;;;;38.65;19.90;;;;;;;9.44;100.00;100797.00;4917211;29;20043;-87
2023/03/18 05:17:30;;;;;;;38.08;19.95;;;;;;;9.42;100.00;100797.25;4913146;29;20044;-86
2023/03/18 05:19:56;;;;;;;34.77;18.27;;;;;;;9.40;100.00;100788.66;4913958;29;20497;-88
2023/03/18 05:22:22;;;;;;;32.67;17.80;;;;;;;9.43;100.00;100798.88;4914979;29;20536;-88
2023/03/18 05:24:48;;;;;;;35.15;18.02;;;;;;;9.38;100.00;100793.47;4904253;29;20040;-87
2023/03/18 05:27:19;;;;;;;41.53;19.50;;;;;;;9.44;100.00;100797.81;4897055;29;20087;-88
2023/03/18 05:29:52;;;;;;;31.52;16.50;;;;;;;9.36;100.00;100774.19;4913258;29;20028;-88
2023/03/18 05:32:18;;;;;;;33.75;18.48;;;;;;;9.27;100.00;100775.69;4911073;29;20032;-86
2023/03/18 05:34:44;;;;;;;28.70;16.37;;;;;;;9.30;100.00;100793.91;4912359;29;20455;-87
2023/03/18 05:37:13;;;;;;;32.65;17.70;;;;;;;9.20;100.00;100787.38;4914622;29;20391;-87
2023/03/18 05:39:39;;;;;;;36.63;18.98;;;;;;;9.15;100.00;100779.28;4913747;29;20472;-88
2023/03/18 05:42:05;;;;;;;37.95;19.92;;;;;;;9.14;100.00;100775.00;4914590;29;20035;-87
2023/03/18 05:44:31;;;;;;;39.60;19.98;;;;;;;9.13;100.00;100780.59;4913695;29;20035;-88
2023/03/18 05:47:18;;;;;;;30.13;17.07;;;;;;;9.09;100.00;100783.78;4913428;29;20047;-88
2023/03/18 05:49:52;;;;;;;34.50;18.07;;;;;;;9.04;100.00;100774.88;4912307;29;20672;-87
2023/03/18 05:52:38;;;;;;;30.95;16.67;;;;;;;9.13;100.00;100810.81;4914044;29;20571;-87
2023/03/18 05:55:04;;;;;;;30.33;17.02;;;;;;;9.09;100.00;100801.69;4913989;29;20067;-87
2023/03/18 05:57:29;;;;;;;34.35;16.45;;;;;;;9.24;100.00;100819.75;4907587;29;20453;-88
2023/03/18 05:59:55;;;;;;;29.53;15.87;;;;;;;9.18;100.00;100805.53;4885369;29;20400;-86
2023/03/18 06:02:20;;;;;;;33.67;16.80;;;;;;;9.28;100.00;100825.44;4894873;29;20647;-86
2023/03/18 06:04:46;;;;;;;33.23;15.90;;;;;;;9.26;100.00;100824.88;4912963;29;20029;-86
2023/03/18 06:07:14;;;;;;;33.65;16.10;;;;;;;9.15;100.00;100816.72;4881189;29;20032;-88
2023/03/18 06:09:39;;;;;;;31.85;16.15;;;;;;;9.19;100.00;100825.88;4896775;29;20059;-88
2023/03/18 06:12:04;;;;;;;30.30;15.73;;;;;;;9.14;100.00;100831.13;4914549;29;20476;-87
2023/03/18 06:14:30;;;;;;;31.67;15.37;;;;;;;9.12;100.00;100822.59;4915070;29;20107;-88
2023/03/18 06:16:56;;;;;;;31.63;15.50;;;;;;;9.07;100.00;100830.53;4915812;29;20393;-87
2023/03/18 06:19:33;;;;;;;35.63;17.43;;;;;;;9.05;100.00;100828.09;4913591;29;20764;-92
2023/03/18 06:21:58;;;;;;;26.77;14.68;;;;;;;8.99;100.00;100828.28;4910779;29;20020;-87
2023/03/18 06:24:38;;;;;;;24.87;13.47;;;;;;;8.80;100.00;100807.19;4936864;29;20111;-91
2023/03/18 06:27:13;;;;;;;28.48;15.05;;;;;;;8.76;100.00;100808.75;4922132;29;20049;-90
2023/03/18 06:32:37;;;;;;;27.48;14.65;;;;;;;8.75;100.00;100815.94;4890180;29;20028;-90
2023/03/18 06:35:15;;;;;;;31.77;17.10;;;;;;;8.82;100.00;100821.09;4940201;28;20124;-90
2023/03/18 06:38:02;;;;;;;27.15;15.27;;;;;;;8.83;100.00;100827.28;4931433;28;20191;-90
2023/03/18 06:40:33;;;;;;;33.53;16.05;;;;;;;8.64;100.00;100801.63;4919889;29;20048;-90
2023/03/18 06:42:59;;;;;;;32.97;15.57;;;;;;;8.77;100.00;100824.53;4920176;29;20327;-90
2023/03/18 06:45:24;;;;;;;29.77;15.07;;;;;;;8.73;100.00;100830.59;4921425;29;20024;-91
2023/03/18 06:47:50;;;;;;;31.30;16.90;;;;;;;8.72;100.00;100834.31;4910364;29;20445;-90
2023/03/18 06:52:53;;;;;;;33.83;19.35;;;;;;;8.70;100.00;100820.41;4941273;23;20519;-92
2023/03/18 06:55:31;;;;;;;32.40;18.00;;;;;;;8.72;100.00;100820.97;4920613;29;20071;-92
2023/03/18 06:57:57;;;;;;;35.37;18.50;;;;;;;8.91;100.00;100854.38;4920005;29;20780;-91
2023/03/18 07:00:56;;;;;;;34.83;17.02;;;;;;;8.92;100.00;100850.66;4942103;23;20111;-96
2023/03/18 07:03:21;;;;;;;35.65;17.40;;;;;;;8.84;100.00;100832.34;4914638;29;20055;-92
2023/03/18 07:05:50;;;;;;;34.53;17.00;;;;;;;8.84;100.00;100827.00;4930512;29;20036;-93
2023/03/18 07:08:15;;;;;;;35.33;18.08;;;;;;;9.04;100.00;100863.09;4929141;29;20040;-88
2023/03/18 07:13:28;;;;;;;;;;;;;;;;;;;;;
2023/03/18 07:15:55;;;;;;;33.00;19.13;;;;;;;8.99;100.00;100849.66;4949370;28;20086;-89
2023/03/18 07:18:29;;;;;;;41.35;21.45;;;;;;;9.04;100.00;100858.53;4941772;28;20338;-88
2023/03/18 07:21:49;;;;;;;38.67;20.65;;;;;;;9.05;100.00;100854.81;4944242;29;20036;-90
2023/03/18 07:24:16;;;;;;;34.58;18.48;;;;;;;9.24;100.00;100871.38;4907459;29;20079;-87
2023/03/18 07:26:49;;;;;;;29.80;18.38;;;;;;;9.29;100.00;100885.88;4930831;29;20492;-89
2023/03/18 07:36:30;;;;;;;32.65;17.48;;;;;;;9.41;100.00;100889.25;4857810;29;20044;-89
2023/03/18 07:39:00;;;;;;;29.30;16.33;;;;;;;9.42;100.00;100880.16;4846688;29;20036;-88
2023/03/18 07:49:50;;;;;;;31.25;16.83;;;;;;;9.62;100.00;100909.03;5151130;23;20071;-87
2023/03/18 07:53:09;;;;;;;28.10;16.75;;;;;;;9.66;100.00;100904.78;5060776;23;20064;-87
2023/03/18 08:15:33;;;;;;;24.40;14.18;;;;;;;9.97;100.00;100896.31;6028562;23;20047;-91
2023/03/18 08:18:29;;;;;;;25.65;13.60;;;;;;;10.02;100.00;100900.91;4934976;29;20042;-93
2023/03/18 08:47:37;;;;;;;17.63;10.82;;;;;;;10.83;100.00;100926.84;5058552;23;20542;-94
2023/03/18 08:50:17;;;;;;;16.23;10.18;;;;;;;10.95;100.00;100915.94;4949486;23;20083;-93
2023/03/18 08:55:20;;;;;;;15.60;9.70;;;;;;;11.08;100.00;100911.19;4902804;29;20056;-94
2023/03/18 09:12:29;;;;;;;11.07;7.65;;;;;;;11.50;100.00;100926.44;5199089;23;20121;-93
2023/03/18 09:24:27;;;;;;;11.38;6.10;;;;;;;12.18;100.00;100930.97;4956065;23;20051;-95
2023/03/18 09:26:53;;;;;;;13.70;6.10;;;;;;;12.25;100.00;100907.31;4933858;29;20063;-95
2023/03/18 09:37:08;;;;;;;;;;;;;;;;;;;;;
2023/03/18 10:16:59;;;;;;;6.05;3.20;;;;;;;14.68;95.58;100943.44;4922565;29;20150;-94
2023/03/18 10:39:55;;;;;;;8.35;3.33;;;;;;;15.17;91.41;100930.00;5160072;23;20687;-95
2023/03/18 11:24:07;;;;;;;7.40;2.58;;;;;;;16.46;72.72;100920.25;5050158;23;20531;-88
2023/03/18 11:26:44;;;;;;;5.55;2.47;;;;;;;16.53;74.25;100944.19;4898590;29;20040;-90
2023/03/18 11:29:15;;;;;;;6.28;2.42;;;;;;;16.47;74.02;100951.59;4915673;29;20487;-90
2023/03/18 11:31:56;;;;;;;6.90;2.87;;;;;;;16.33;77.28;100956.94;4898863;29;20120;-90
2023/03/18 11:34:24;;;;;;;5.60;2.65;;;;;;;16.08;77.51;100955.41;4911729;29;20028;-91
2023/03/18 11:37:00;;;;;;;7.85;2.75;;;;;;;15.88;78.93;100958.13;4884658;29;20044;-91
2023/03/18 11:39:29;;;;;;;6.03;2.88;;;;;;;15.69;78.51;100959.94;5005264;23;20046;-87
2023/03/18 11:56:52;;;;;;;7.05;2.35;;;;;;;15.04;87.09;100970.09;4865741;29;20052;-90
2023/03/18 11:59:57;;;;;;;9.15;2.45;;;;;;;14.85;88.95;100953.78;4914219;23;20039;-89
2023/03/18 12:06:18;;;;;;;4.38;2.20;;;;;;;14.97;85.93;100967.69;4885861;29;20059;-89
2023/03/18 12:12:39;;;;;;;4.95;2.20;;;;;;;15.15;87.43;100968.09;5193527;23;20029;-88
2023/03/18 12:19:04;;;;;;;4.10;2.63;;;;;;;15.24;86.04;100966.38;4907434;29;20759;-86
2023/03/18 12:21:48;;;;;;;4.78;2.25;;;;;;;15.11;84.97;100969.75;4881092;29;20045;-86
2023/03/18 12:24:16;;;;;;;3.60;2.30;;;;;;;14.96;85.64;100976.09;4896555;29;20033;-86
2023/03/18 12:26:41;;;;;;;4.25;2.28;;;;;;;14.82;85.01;100965.13;4896632;29;20044;-86
2023/03/18 12:29:34;;;;;;;5.13;2.10;;;;;;;14.88;86.24;100969.41;4893791;29;20171;-86
2023/03/18 12:32:02;;;;;;;4.95;2.22;;;;;;;14.90;88.78;100969.13;4896618;29;20052;-88
2023/03/18 12:35:01;;;;;;;3.58;2.40;;;;;;;14.54;93.54;100960.19;4896125;29;20436;-88
2023/03/18 12:37:31;;;;;;;5.07;2.42;;;;;;;14.13;100.00;100962.38;4896321;29;20032;-88
2023/03/18 12:40:11;;;;;;;6.80;2.57;;;;;;;14.03;100.00;100965.91;4895272;29;20036;-87
2023/03/18 12:43:12;;;;;;;5.13;2.73;;;;;;;14.17;100.00;100974.22;4896274;29;20300;-86
2023/03/18 12:45:44;;;;;;;5.28;1.98;;;;;;;14.47;100.00;100967.00;4895401;29;20036;-86
2023/03/18 12:48:16;;;;;;;2.70;1.73;;;;;;;14.67;93.98;100971.44;4895970;29;20122;-86
2023/03/18 12:50:51;;;;;;;5.50;1.60;;;;;;;14.65;93.93;100968.22;4895521;29;20496;-86
2023/03/18 12:53:27;;;;;;;3.47;1.58;;;;;;;14.78;92.01;100961.41;4877931;29;20040;-87
2023/03/18 12:56:00;;;;;;;2.78;1.52;;;;;;;15.00;93.53;100960.94;4894164;29;20120;-87
2023/03/18 14:16:21;;;;;;;1.83;1.47;;;;;;;15.87;77.06;100910.56;4917587;29;20348;-87
2023/03/18 14:31:24;;;;;;;7.10;1.50;;;;;;;16.41;76.93;100920.31;5389052;23;20160;-84
2023/03/18 14:34:13;;;;;;;4.82;2.00;;;;;;;16.31;76.19;100924.78;4902240;29;20040;-85
2023/03/18 14:36:48;;;;;;;4.25;1.80;;;;;;;15.88;74.84;100909.47;4922300;29;20492;-85
2023/03/18 14:39:18;;;;;;;4.20;1.60;;;;;;;15.69;76.22;100914.81;4914611;29;20063;-84
2023/03/18 14:41:47;;;;;;;3.30;1.60;;;;;;;15.56;77.21;100897.41;4916554;29;20036;-86
2023/03/18 14:44:22;;;;;;;3.35;1.70;;;;;;;15.56;78.36;100902.03;4915597;29;20024;-86
2023/03/18 14:46:57;;;;;;;3.78;1.60;;;;;;;15.56;78.08;100900.13;4916011;29;20063;-86
2023/03/18 14:50:01;;;;;;;4.18;1.60;;;;;;;15.50;77.66;100895.91;4897373;29;20032;-86
2023/03/18 14:52:41;;;;;;;4.43;1.63;;;;;;;15.52;78.21;100893.69;4915699;29;20175;-86
2023/03/18 14:55:16;;;;;;;6.70;1.58;;;;;;;15.65;78.49;100888.69;4912263;29;20028;-86
2023/03/18 14:57:43;;;;;;;9.68;1.75;;;;;;;15.59;78.49;100885.25;4894013;29;20039;-87
2023/03/18 15:00:14;;;;;;;4.27;1.53;;;;;;;15.57;78.19;100877.41;4913540;29;20435;-84
2023/03/18 15:02:40;;;;;;;3.88;1.63;;;;;;;15.67;77.51;100881.09;4911164;29;20119;-85
2023/03/18 15:05:05;;;;;;;3.40;1.60;;;;;;;15.77;78.45;100883.66;4919656;29;20480;-86
2023/03/18 15:07:37;;;;;;;5.13;1.90;;;;;;;15.90;75.58;100887.56;4917074;29;20036;-85
2023/03/18 15:10:10;;;;;;;1.58;1.27;;;;;;;15.83;74.77;100882.50;4917086;29;20607;-86
2023/03/18 15:12:36;;;;;;;5.30;1.73;;;;;;;15.82;76.02;100883.59;4903727;29;20044;-86
2023/03/18 15:15:03;;;;;;;6.03;1.70;;;;;;;15.67;74.70;100878.41;4923098;29;20044;-85
2023/03/18 15:17:29;;;;;;;2.25;1.50;;;;;;;15.64;76.36;100878.97;4935766;29;20021;-86
2023/03/18 15:19:56;;;;;;;3.67;1.60;;;;;;;15.71;75.92;100882.91;4911012;29;20024;-84
2023/03/18 15:22:27;;;;;;;3.37;1.50;;;;;;;15.73;75.71;100875.34;4892652;29;20228;-83
2023/03/18 15:25:05;;;;;;;4.40;1.60;;;;;;;15.64;76.26;100868.16;4918383;29;20296;-83
2023/03/18 15:27:33;;;;;;;4.43;1.67;;;;;;;15.80;76.35;100872.25;4926053;29;20028;-82
2023/03/18 15:30:01;;;;;;;4.15;1.75;;;;;;;15.98;76.15;100870.66;4936030;29;20059;-83
2023/03/18 15:32:27;;;;;;;2.78;1.27;;;;;;;16.04;73.88;100864.09;4900962;29;20028;-84
2023/03/18 15:35:14;;;;;;;4.18;1.50;;;;;;;15.89;72.57;100864.34;4915060;29;20050;-83
2023/03/18 15:37:42;;;;;;;3.15;1.33;;;;;;;15.84;73.98;100865.19;4915962;29;20091;-84
2023/03/18 15:40:30;;;;;;;4.28;1.40;;;;;;;15.82;71.57;100866.56;4898249;29;20036;-83
2023/03/18 15:43:19;;;;;;;3.67;1.50;;;;;;;15.71;70.46;100866.72;4887468;29;20317;-83
2023/03/18 15:46:16;;;;;;;2.40;1.30;;;;;;;15.73;71.10;100866.41;4918060;29;20296;-82
2023/03/18 15:49:37;;;;;;;2.95;1.30;;;;;;;15.73;69.51;100864.53;4963982;23;20091;-83
2023/03/18 15:52:16;;;;;;;3.05;1.50;;;;;;;15.39;70.36;100846.63;4924268;29;20866;-83
2023/03/18 15:54:57;;;;;;;7.20;1.50;;;;;;;15.33;70.87;100841.56;4921819;29;20035;-82
2023/03/18 15:57:50;;;;;;;1.40;1.25;;;;;;;15.08;70.63;100860.47;5137838;23;20034;-84
2023/03/18 16:00:19;;;;;;;2.92;1.20;;;;;;;14.79;72.84;100855.94;4888107;29;20038;-84
2023/03/18 16:08:23;;;;;;;7.40;1.60;;;;;;;14.35;71.63;100843.34;5669462;23;20047;-85
2023/03/18 16:10:53;;;;;;;3.83;1.10;;;;;;;14.47;72.37;100864.56;4942800;29;20302;-83
2023/03/18 16:13:24;;;;;;;4.32;1.17;;;;;;;14.53;71.99;100861.53;4926935;29;20055;-85
2023/03/18 16:15:51;;;;;;;2.17;1.00;;;;;;;14.50;70.81;100845.13;4944789;29;20051;-85
2023/03/18 16:18:21;;;;;;;2.28;1.00;;;;;;;14.59;69.28;100851.53;4935610;29;20079;-86
2023/03/18 16:20:47;;;;;;;3.72;1.00;;;;;;;14.58;70.24;100851.78;4931377;29;20056;-88
2023/03/18 16:23:14;;;;;;;4.55;1.23;;;;;;;14.58;69.74;100851.78;4918536;29;20039;-87
2023/03/18 16:25:45;;;;;;;3.00;1.20;;;;;;;14.51;68.22;100852.94;4915729;29;20072;-86
2023/03/18 16:28:21;;;;;;;4.80;1.15;;;;;;;14.45;69.73;100859.47;4900129;29;20016;-85
2023/03/18 16:30:48;;;;;;;2.07;1.00;;;;;;;14.36;69.11;100848.47;4917522;29;20036;-86
2023/03/18 16:33:16;;;;;;;5.47;1.15;;;;;;;14.32;70.56;100850.13;4918830;29;20084;-86
2023/03/18 16:35:42;;;;;;;1.95;1.10;;;;;;;14.27;70.82;100844.78;4899975;29;20452;-87
2023/03/18 16:38:14;;;;;;;2.50;0.90;;;;;;;14.23;70.94;100849.94;4916056;29;20491;-86
2023/03/18 16:40:40;;;;;;;1.58;0.98;;;;;;;14.19;68.91;100842.69;4906384;29;20035;-86
2023/03/18 16:43:15;;;;;;;2.58;1.40;;;;;;;14.10;70.64;100845.19;4914949;29;20024;-86
2023/03/18 16:45:40;;;;;;;5.28;1.40;;;;;;;14.04;70.41;100846.31;4909972;29;20052;-86
2023/03/18 16:48:06;;;;;;;6.23;1.23;;;;;;;14.01;71.21;100846.84;4926413;29;20729;-86
2023/03/18 16:50:37;;;;;;;4.25;1.15;;;;;;;13.99;71.44;100857.91;4923245;29;20039;-87
2023/03/18 16:53:19;;;;;;;2.53;1.20;;;;;;;13.91;72.32;100859.31;4933644;29;20035;-87
2023/03/18 16:55:46;;;;;;;4.30;1.23;;;;;;;13.85;70.09;100854.25;4930465;29;20033;-85
2023/03/18 16:58:16;;;;;;;4.43;1.20;;;;;;;13.78;72.72;100851.88;4901623;29;20116;-89
2023/03/18 17:00:45;;;;;;;1.97;1.10;;;;;;;13.70;72.02;100855.94;4919434;29;20295;-86
2023/03/18 17:03:12;;;;;;;4.38;0.90;;;;;;;13.62;71.11;100854.63;4923060;29;20024;-94
2023/03/18 17:05:37;;;;;;;2.75;1.25;;;;;;;13.58;72.38;100858.16;4903595;29;20028;-90
2023/03/18 17:08:03;;;;;;;9.00;1.20;;;;;;;13.53;73.28;100847.41;4925939;29;20452;-88
2023/03/18 17:10:28;;;;;;;4.55;1.30;;;;;;;13.50;73.20;100856.84;4930377;29;20024;-95
2023/03/18 17:13:01;;;;;;;5.27;1.20;;;;;;;13.41;72.90;100851.25;4933222;29;20043;-93
2023/03/18 17:15:33;;;;;;;2.03;1.10;;;;;;;13.30;74.30;100849.66;4927180;29;20047;-91